Smith, Nevada
Current Conditions -  °F | °C
As of 3:52 AM on Monday 22 Dec 2014 (Local Time) from KBAN Reporting Station
Clear Clear  
Wind Chill: 23°   Ceiling: Unl
Heat Index: 23°   Visibility: NA
Dew Point: 18°   Wind: 0mph
Humidity: 81%   Direction: NA
Pressure: 30.34"   Gusts: NA
Location:  38.8°N, 119.33°W
Report Text: KBAN 221152Z AUTO 00000KT CLR M05/M08 A3034 RMK AO2 SLP264 T10501078 10006 21050 58003 FZRANO $
Loading
Personal Weather Stations






























Interactive Weather Map New forecast layout! Learn more

10-Day Weather Forecast

Advertisements
Track Severe Weather on mobile